sensor_id;sensor_type;location;lat;lon;timestamp;temperature;humidity
54832;DHT22;40730;53.068;6.572;2023-08-21T00:00:34;14.20;99.90
54832;DHT22;40730;53.068;6.572;2023-08-21T00:02:59;14.30;99.90
54832;DHT22;40730;53.068;6.572;2023-08-21T00:05:25;14.20;99.90
54832;DHT22;40730;53.068;6.572;2023-08-21T00:07:50;14.20;99.90
54832;DHT22;40730;53.068;6.572;2023-08-21T00:10:16;14.20;99.90
54832;DHT22;40730;53.068;6.572;2023-08-21T00:12:42;14.20;99.90
54832;DHT22;40730;53.068;6.572;2023-08-21T00:15:08;14.10;99.90
54832;DHT22;40730;53.068;6.572;2023-08-21T00:17:35;14.10;99.90
54832;DHT22;40730;53.068;6.572;2023-08-21T00:20:01;14.10;99.90
54832;DHT22;40730;53.068;6.572;2023-08-21T00:22:27;14.10;99.90
54832;DHT22;40730;53.068;6.572;2023-08-21T00:24:52;14.10;99.90
54832;DHT22;40730;53.068;6.572;2023-08-21T00:27:18;14.10;99.90
54832;DHT22;40730;53.068;6.572;2023-08-21T00:29:44;14.10;99.90
54832;DHT22;40730;53.068;6.572;2023-08-21T00:32:09;14.00;99.90
54832;DHT22;40730;53.068;6.572;2023-08-21T00:34:37;14.10;99.90
54832;DHT22;40730;53.068;6.572;2023-08-21T00:37:03;14.00;99.90
54832;DHT22;40730;53.068;6.572;2023-08-21T00:39:28;14.10;99.90
54832;DHT22;40730;53.068;6.572;2023-08-21T00:41:54;14.10;99.90
54832;DHT22;40730;53.068;6.572;2023-08-21T00:44:20;14.10;99.90
54832;DHT22;40730;53.068;6.572;2023-08-21T00:46:45;14.10;99.90
54832;DHT22;40730;53.068;6.572;2023-08-21T00:49:11;14.10;99.90
54832;DHT22;40730;53.068;6.572;2023-08-21T00:51:37;14.00;99.90
54832;DHT22;40730;53.068;6.572;2023-08-21T00:54:03;13.90;99.90
54832;DHT22;40730;53.068;6.572;2023-08-21T00:56:29;13.80;99.90
54832;DHT22;40730;53.068;6.572;2023-08-21T00:58:55;13.80;99.90
54832;DHT22;40730;53.068;6.572;2023-08-21T01:01:24;14.10;99.90
54832;DHT22;40730;53.068;6.572;2023-08-21T01:03:51;13.80;99.90
54832;DHT22;40730;53.068;6.572;2023-08-21T01:06:18;13.80;99.90
54832;DHT22;40730;53.068;6.572;2023-08-21T01:11:37;13.60;99.90
54832;DHT22;40730;53.068;6.572;2023-08-21T01:14:27;13.50;99.90
54832;DHT22;40730;53.068;6.572;2023-08-21T01:16:56;13.50;99.90
54832;DHT22;40730;53.068;6.572;2023-08-21T01:19:36;13.50;99.90
54832;DHT22;40730;53.068;6.572;2023-08-21T01:22:03;13.50;99.90
54832;DHT22;40730;53.068;6.572;2023-08-21T01:24:29;13.40;99.90
54832;DHT22;40730;53.068;6.572;2023-08-21T01:26:55;13.40;99.90
54832;DHT22;40730;53.068;6.572;2023-08-21T01:29:21;13.40;99.90
54832;DHT22;40730;53.068;6.572;2023-08-21T01:31:52;13.40;99.90
54832;DHT22;40730;53.068;6.572;2023-08-21T01:34:22;13.40;99.90
54832;DHT22;40730;53.068;6.572;2023-08-21T01:36:48;13.40;99.90
54832;DHT22;40730;53.068;6.572;2023-08-21T01:39:14;13.50;99.90
54832;DHT22;40730;53.068;6.572;2023-08-21T01:41:41;13.50;99.90
54832;DHT22;40730;53.068;6.572;2023-08-21T01:44:07;13.40;99.90
54832;DHT22;40730;53.068;6.572;2023-08-21T01:46:32;13.40;99.90
54832;DHT22;40730;53.068;6.572;2023-08-21T01:48:58;13.30;99.90
54832;DHT22;40730;53.068;6.572;2023-08-21T01:51:24;13.30;99.90
54832;DHT22;40730;53.068;6.572;2023-08-21T01:53:49;13.30;99.90
54832;DHT22;40730;53.068;6.572;2023-08-21T01:56:15;13.40;99.90
54832;DHT22;40730;53.068;6.572;2023-08-21T01:58:40;13.40;99.90
54832;DHT22;40730;53.068;6.572;2023-08-21T02:01:06;13.40;99.90
54832;DHT22;40730;53.068;6.572;2023-08-21T02:03:32;13.40;99.90
54832;DHT22;40730;53.068;6.572;2023-08-21T02:05:57;13.40;99.90
54832;DHT22;40730;53.068;6.572;2023-08-21T02:08:30;13.40;99.90
54832;DHT22;40730;53.068;6.572;2023-08-21T02:10:56;13.30;99.90
54832;DHT22;40730;53.068;6.572;2023-08-21T02:13:22;13.40;99.90
54832;DHT22;40730;53.068;6.572;2023-08-21T02:15:48;13.40;99.90
54832;DHT22;40730;53.068;6.572;2023-08-21T02:18:13;13.50;99.90
54832;DHT22;40730;53.068;6.572;2023-08-21T02:20:39;13.30;99.90
54832;DHT22;40730;53.068;6.572;2023-08-21T02:23:05;13.20;99.90
54832;DHT22;40730;53.068;6.572;2023-08-21T02:25:31;13.10;99.90
54832;DHT22;40730;53.068;6.572;2023-08-21T02:27:57;13.10;99.90
54832;DHT22;40730;53.068;6.572;2023-08-21T02:30:23;13.00;99.90
54832;DHT22;40730;53.068;6.572;2023-08-21T02:32:52;13.10;99.90
54832;DHT22;40730;53.068;6.572;2023-08-21T02:35:19;13.10;99.90
54832;DHT22;40730;53.068;6.572;2023-08-21T02:37:45;13.10;99.90
54832;DHT22;40730;53.068;6.572;2023-08-21T02:40:10;13.20;99.90
54832;DHT22;40730;53.068;6.572;2023-08-21T02:42:36;13.20;99.90
54832;DHT22;40730;53.068;6.572;2023-08-21T02:45:03;13.30;99.90
54832;DHT22;40730;53.068;6.572;2023-08-21T02:47:37;13.20;99.90
54832;DHT22;40730;53.068;6.572;2023-08-21T02:50:04;13.10;99.90
54832;DHT22;40730;53.068;6.572;2023-08-21T02:52:30;13.00;99.90
54832;DHT22;40730;53.068;6.572;2023-08-21T02:54:56;13.00;99.90
54832;DHT22;40730;53.068;6.572;2023-08-21T02:57:21;13.00;99.90
54832;DHT22;40730;53.068;6.572;2023-08-21T02:59:47;13.10;99.90
54832;DHT22;40730;53.068;6.572;2023-08-21T03:02:12;13.10;99.90
54832;DHT22;40730;53.068;6.572;2023-08-21T03:04:38;13.10;99.90
54832;DHT22;40730;53.068;6.572;2023-08-21T03:07:04;13.00;99.90
54832;DHT22;40730;53.068;6.572;2023-08-21T03:09:29;13.00;99.90
54832;DHT22;40730;53.068;6.572;2023-08-21T03:11:55;13.00;99.90
54832;DHT22;40730;53.068;6.572;2023-08-21T03:14:21;13.00;99.90
54832;DHT22;40730;53.068;6.572;2023-08-21T03:16:46;13.00;99.90
54832;DHT22;40730;53.068;6.572;2023-08-21T03:19:12;13.10;99.90
54832;DHT22;40730;53.068;6.572;2023-08-21T03:21:37;13.00;99.90
54832;DHT22;40730;53.068;6.572;2023-08-21T03:24:03;13.00;99.90
54832;DHT22;40730;53.068;6.572;2023-08-21T03:26:29;13.00;99.90
54832;DHT22;40730;53.068;6.572;2023-08-21T03:28:54;13.00;99.90
54832;DHT22;40730;53.068;6.572;2023-08-21T03:31:20;13.10;99.90
54832;DHT22;40730;53.068;6.572;2023-08-21T03:33:46;13.10;99.90
54832;DHT22;40730;53.068;6.572;2023-08-21T03:36:12;13.10;99.90
54832;DHT22;40730;53.068;6.572;2023-08-21T03:38:37;13.10;99.90
54832;DHT22;40730;53.068;6.572;2023-08-21T03:41:03;13.10;99.90
54832;DHT22;40730;53.068;6.572;2023-08-21T03:43:31;13.10;99.90
54832;DHT22;40730;53.068;6.572;2023-08-21T03:45:56;13.10;99.90
54832;DHT22;40730;53.068;6.572;2023-08-21T03:48:22;13.00;99.90
54832;DHT22;40730;53.068;6.572;2023-08-21T03:50:49;13.10;99.90
54832;DHT22;40730;53.068;6.572;2023-08-21T03:53:15;13.00;99.90
54832;DHT22;40730;53.068;6.572;2023-08-21T03:55:40;13.00;99.90
54832;DHT22;40730;53.068;6.572;2023-08-21T03:58:06;13.00;99.90
54832;DHT22;40730;53.068;6.572;2023-08-21T04:00:32;13.00;99.90
54832;DHT22;40730;53.068;6.572;2023-08-21T04:02:58;12.90;99.90
54832;DHT22;40730;53.068;6.572;2023-08-21T04:05:23;12.80;99.90
54832;DHT22;40730;53.068;6.572;2023-08-21T04:07:49;12.80;99.90
54832;DHT22;40730;53.068;6.572;2023-08-21T04:10:15;12.80;99.90
54832;DHT22;40730;53.068;6.572;2023-08-21T04:12:42;12.80;99.90
54832;DHT22;40730;53.068;6.572;2023-08-21T04:15:08;12.80;99.90
54832;DHT22;40730;53.068;6.572;2023-08-21T04:17:34;12.80;99.90
54832;DHT22;40730;53.068;6.572;2023-08-21T04:19:59;12.80;99.90
54832;DHT22;40730;53.068;6.572;2023-08-21T04:22:25;12.80;99.90
54832;DHT22;40730;53.068;6.572;2023-08-21T04:24:50;12.80;99.90
54832;DHT22;40730;53.068;6.572;2023-08-21T04:27:16;12.90;99.90
54832;DHT22;40730;53.068;6.572;2023-08-21T04:29:42;12.90;99.90
54832;DHT22;40730;53.068;6.572;2023-08-21T04:32:07;12.90;99.90
54832;DHT22;40730;53.068;6.572;2023-08-21T04:34:33;12.90;99.90
54832;DHT22;40730;53.068;6.572;2023-08-21T04:36:59;12.90;99.90
54832;DHT22;40730;53.068;6.572;2023-08-21T04:39:25;12.90;99.90
54832;DHT22;40730;53.068;6.572;2023-08-21T04:41:51;12.90;99.90
54832;DHT22;40730;53.068;6.572;2023-08-21T04:44:16;12.90;99.90
54832;DHT22;40730;53.068;6.572;2023-08-21T04:46:42;13.00;99.90
54832;DHT22;40730;53.068;6.572;2023-08-21T04:49:08;12.90;99.90
54832;DHT22;40730;53.068;6.572;2023-08-21T04:51:34;12.90;99.90
54832;DHT22;40730;53.068;6.572;2023-08-21T04:54:00;12.90;99.90
54832;DHT22;40730;53.068;6.572;2023-08-21T04:56:26;12.80;99.90
54832;DHT22;40730;53.068;6.572;2023-08-21T04:58:52;12.70;99.90
54832;DHT22;40730;53.068;6.572;2023-08-21T05:01:18;12.80;99.90
54832;DHT22;40730;53.068;6.572;2023-08-21T05:03:43;12.60;99.90
54832;DHT22;40730;53.068;6.572;2023-08-21T05:06:09;12.80;99.90
54832;DHT22;40730;53.068;6.572;2023-08-21T05:08:35;12.90;99.90
54832;DHT22;40730;53.068;6.572;2023-08-21T05:11:01;12.90;99.90
54832;DHT22;40730;53.068;6.572;2023-08-21T05:13:27;13.00;99.90
54832;DHT22;40730;53.068;6.572;2023-08-21T05:15:57;13.30;99.90
54832;DHT22;40730;53.068;6.572;2023-08-21T05:18:24;13.10;99.90
54832;DHT22;40730;53.068;6.572;2023-08-21T05:20:50;13.20;99.90
54832;DHT22;40730;53.068;6.572;2023-08-21T05:23:16;13.30;99.90
54832;DHT22;40730;53.068;6.572;2023-08-21T05:25:45;13.30;99.90
54832;DHT22;40730;53.068;6.572;2023-08-21T05:28:11;13.50;99.90
54832;DHT22;40730;53.068;6.572;2023-08-21T05:30:37;13.50;99.90
54832;DHT22;40730;53.068;6.572;2023-08-21T05:33:03;13.60;99.90
54832;DHT22;40730;53.068;6.572;2023-08-21T05:35:35;13.70;99.90
54832;DHT22;40730;53.068;6.572;2023-08-21T05:38:02;13.80;99.90
54832;DHT22;40730;53.068;6.572;2023-08-21T05:40:28;13.80;99.90
54832;DHT22;40730;53.068;6.572;2023-08-21T05:42:53;13.80;99.90
54832;DHT22;40730;53.068;6.572;2023-08-21T05:45:19;13.80;99.90
54832;DHT22;40730;53.068;6.572;2023-08-21T05:47:45;13.80;99.90
54832;DHT22;40730;53.068;6.572;2023-08-21T05:50:10;13.90;99.90
54832;DHT22;40730;53.068;6.572;2023-08-21T05:52:36;13.90;99.90
54832;DHT22;40730;53.068;6.572;2023-08-21T05:55:01;14.00;99.90
54832;DHT22;40730;53.068;6.572;2023-08-21T05:57:27;14.10;99.90
54832;DHT22;40730;53.068;6.572;2023-08-21T05:59:53;14.10;99.90
54832;DHT22;40730;53.068;6.572;2023-08-21T06:02:18;14.20;99.90
54832;DHT22;40730;53.068;6.572;2023-08-21T06:04:45;14.20;99.90
54832;DHT22;40730;53.068;6.572;2023-08-21T06:07:11;14.40;99.90
54832;DHT22;40730;53.068;6.572;2023-08-21T06:09:36;14.40;99.90
54832;DHT22;40730;53.068;6.572;2023-08-21T06:12:05;14.60;99.90
54832;DHT22;40730;53.068;6.572;2023-08-21T06:14:31;14.60;99.90
54832;DHT22;40730;53.068;6.572;2023-08-21T06:17:02;14.80;99.90
54832;DHT22;40730;53.068;6.572;2023-08-21T06:19:28;14.90;99.90
54832;DHT22;40730;53.068;6.572;2023-08-21T06:21:57;15.10;99.90
54832;DHT22;40730;53.068;6.572;2023-08-21T06:24:23;15.40;99.90
54832;DHT22;40730;53.068;6.572;2023-08-21T06:29:15;15.80;99.90
54832;DHT22;40730;53.068;6.572;2023-08-21T06:31:42;15.90;99.90
54832;DHT22;40730;53.068;6.572;2023-08-21T06:34:08;16.00;99.90
54832;DHT22;40730;53.068;6.572;2023-08-21T06:36:33;16.30;99.90
54832;DHT22;40730;53.068;6.572;2023-08-21T06:46:56;16.90;99.90
54832;DHT22;40730;53.068;6.572;2023-08-21T07:01:06;18.10;99.90
54832;DHT22;40730;53.068;6.572;2023-08-21T07:11:13;18.70;99.90
54832;DHT22;40730;53.068;6.572;2023-08-21T07:18:26;19.10;99.90
54832;DHT22;40730;53.068;6.572;2023-08-21T07:33:04;19.80;99.90
54832;DHT22;40730;53.068;6.572;2023-08-21T07:48:36;20.70;99.90
54832;DHT22;40730;53.068;6.572;2023-08-21T07:52:16;20.80;99.90
54832;DHT22;40730;53.068;6.572;2023-08-21T07:59:37;21.40;99.90
54832;DHT22;40730;53.068;6.572;2023-08-21T08:02:08;21.40;99.90
54832;DHT22;40730;53.068;6.572;2023-08-21T08:04:54;21.40;99.90
54832;DHT22;40730;53.068;6.572;2023-08-21T08:07:39;21.50;99.90
54832;DHT22;40730;53.068;6.572;2023-08-21T08:10:06;21.70;99.90
54832;DHT22;40730;53.068;6.572;2023-08-21T08:12:40;21.90;99.90
54832;DHT22;40730;53.068;6.572;2023-08-21T08:15:16;22.20;99.90
54832;DHT22;40730;53.068;6.572;2023-08-21T08:17:56;22.20;99.90
54832;DHT22;40730;53.068;6.572;2023-08-21T08:24:17;22.50;99.90
54832;DHT22;40730;53.068;6.572;2023-08-21T08:26:46;22.60;99.90
54832;DHT22;40730;53.068;6.572;2023-08-21T08:29:14;22.90;99.90
54832;DHT22;40730;53.068;6.572;2023-08-21T08:31:41;23.10;99.90
54832;DHT22;40730;53.068;6.572;2023-08-21T08:34:14;23.20;99.90
54832;DHT22;40730;53.068;6.572;2023-08-21T08:36:40;23.40;99.90
54832;DHT22;40730;53.068;6.572;2023-08-21T08:39:23;23.40;99.90
54832;DHT22;40730;53.068;6.572;2023-08-21T08:42:38;23.50;99.90
54832;DHT22;40730;53.068;6.572;2023-08-21T08:46:32;23.80;99.90
54832;DHT22;40730;53.068;6.572;2023-08-21T09:00:19;24.60;99.90
54832;DHT22;40730;53.068;6.572;2023-08-21T09:03:28;24.60;99.90
54832;DHT22;40730;53.068;6.572;2023-08-21T09:06:38;24.70;99.90
54832;DHT22;40730;53.068;6.572;2023-08-21T09:09:08;25.00;99.90
54832;DHT22;40730;53.068;6.572;2023-08-21T09:11:46;25.30;99.90
54832;DHT22;40730;53.068;6.572;2023-08-21T09:14:13;25.40;99.90
54832;DHT22;40730;53.068;6.572;2023-08-21T09:17:02;25.70;99.90
54832;DHT22;40730;53.068;6.572;2023-08-21T09:19:47;25.90;99.90
54832;DHT22;40730;53.068;6.572;2023-08-21T09:22:34;26.00;99.40
54832;DHT22;40730;53.068;6.572;2023-08-21T09:30:22;26.20;99.90
54832;DHT22;40730;53.068;6.572;2023-08-21T09:36:16;26.70;98.80
54832;DHT22;40730;53.068;6.572;2023-08-21T09:39:52;27.10;99.00
54832;DHT22;40730;53.068;6.572;2023-08-21T09:42:56;27.20;97.10
54832;DHT22;40730;53.068;6.572;2023-08-21T09:45:56;27.80;97.40
54832;DHT22;40730;53.068;6.572;2023-08-21T09:48:48;27.90;97.30
54832;DHT22;40730;53.068;6.572;2023-08-21T09:51:28;27.90;95.80
54832;DHT22;40730;53.068;6.572;2023-08-21T10:14:13;28.70;92.80
54832;DHT22;40730;53.068;6.572;2023-08-21T10:18:18;29.10;93.80
54832;DHT22;40730;53.068;6.572;2023-08-21T10:21:35;29.00;91.80
54832;DHT22;40730;53.068;6.572;2023-08-21T10:24:37;29.40;91.90
54832;DHT22;40730;53.068;6.572;2023-08-21T10:27:08;29.70;91.00
54832;DHT22;40730;53.068;6.572;2023-08-21T10:29:38;29.90;90.40
54832;DHT22;40730;53.068;6.572;2023-08-21T10:32:10;30.00;90.10
54832;DHT22;40730;53.068;6.572;2023-08-21T10:34:52;30.00;87.50
54832;DHT22;40730;53.068;6.572;2023-08-21T10:37:20;30.40;88.20
54832;DHT22;40730;53.068;6.572;2023-08-21T10:40:22;30.50;87.20
54832;DHT22;40730;53.068;6.572;2023-08-21T10:43:42;31.10;84.90
54832;DHT22;40730;53.068;6.572;2023-08-21T10:47:31;31.00;83.60
54832;DHT22;40730;53.068;6.572;2023-08-21T10:53:37;31.40;79.60
54832;DHT22;40730;53.068;6.572;2023-08-21T11:00:12;31.40;77.30
54832;DHT22;40730;53.068;6.572;2023-08-21T11:02:42;31.50;75.10
54832;DHT22;40730;53.068;6.572;2023-08-21T11:05:11;31.70;75.40
54832;DHT22;40730;53.068;6.572;2023-08-21T11:07:42;31.80;74.50
54832;DHT22;40730;53.068;6.572;2023-08-21T11:10:17;31.90;73.90
54832;DHT22;40730;53.068;6.572;2023-08-21T11:12:58;31.90;73.50
54832;DHT22;40730;53.068;6.572;2023-08-21T11:15:30;31.90;75.30
54832;DHT22;40730;53.068;6.572;2023-08-21T11:18:00;31.80;74.00
54832;DHT22;40730;53.068;6.572;2023-08-21T11:20:34;31.80;71.00
54832;DHT22;40730;53.068;6.572;2023-08-21T11:23:05;31.90;68.10
54832;DHT22;40730;53.068;6.572;2023-08-21T11:25:40;31.50;69.60
54832;DHT22;40730;53.068;6.572;2023-08-21T11:28:06;31.80;70.10
54832;DHT22;40730;53.068;6.572;2023-08-21T11:30:34;31.80;69.50
54832;DHT22;40730;53.068;6.572;2023-08-21T11:33:09;32.20;68.60
54832;DHT22;40730;53.068;6.572;2023-08-21T11:35:41;32.40;68.00
54832;DHT22;40730;53.068;6.572;2023-08-21T11:38:23;32.00;65.40
54832;DHT22;40730;53.068;6.572;2023-08-21T11:41:07;32.00;67.50
54832;DHT22;40730;53.068;6.572;2023-08-21T11:43:38;32.60;67.80
54832;DHT22;40730;53.068;6.572;2023-08-21T11:46:07;33.10;65.80
54832;DHT22;40730;53.068;6.572;2023-08-21T11:48:47;33.10;66.30
54832;DHT22;40730;53.068;6.572;2023-08-21T11:51:14;33.60;64.70
54832;DHT22;40730;53.068;6.572;2023-08-21T11:54:16;32.90;65.70
54832;DHT22;40730;53.068;6.572;2023-08-21T12:01:21;31.40;68.50
54832;DHT22;40730;53.068;6.572;2023-08-21T12:22:42;32.10;67.40
54832;DHT22;40730;53.068;6.572;2023-08-21T12:25:45;32.70;65.00
54832;DHT22;40730;53.068;6.572;2023-08-21T12:45:36;30.40;67.10
54832;DHT22;40730;53.068;6.572;2023-08-21T12:48:03;29.50;68.10
54832;DHT22;40730;53.068;6.572;2023-08-21T12:50:30;28.80;71.80
54832;DHT22;40730;53.068;6.572;2023-08-21T12:52:57;29.20;72.00
54832;DHT22;40730;53.068;6.572;2023-08-21T12:55:23;29.90;70.80
54832;DHT22;40730;53.068;6.572;2023-08-21T13:02:00;31.30;68.00
54832;DHT22;40730;53.068;6.572;2023-08-21T13:04:53;32.40;68.40
54832;DHT22;40730;53.068;6.572;2023-08-21T13:10:55;32.10;64.60
54832;DHT22;40730;53.068;6.572;2023-08-21T13:13:31;31.50;64.60
54832;DHT22;40730;53.068;6.572;2023-08-21T13:16:57;31.10;65.30
54832;DHT22;40730;53.068;6.572;2023-08-21T13:30:45;30.60;68.50
54832;DHT22;40730;53.068;6.572;2023-08-21T13:33:20;30.20;68.80
54832;DHT22;40730;53.068;6.572;2023-08-21T13:36:07;30.10;69.10
54832;DHT22;40730;53.068;6.572;2023-08-21T13:46:08;28.60;72.50
54832;DHT22;40730;53.068;6.572;2023-08-21T13:48:41;28.10;72.40
54832;DHT22;40730;53.068;6.572;2023-08-21T13:52:23;28.00;73.90
54832;DHT22;40730;53.068;6.572;2023-08-21T13:55:19;27.70;75.10
54832;DHT22;40730;53.068;6.572;2023-08-21T13:57:52;27.50;78.00
54832;DHT22;40730;53.068;6.572;2023-08-21T14:01:23;27.40;78.50
54832;DHT22;40730;53.068;6.572;2023-08-21T14:04:19;27.40;81.80
54832;DHT22;40730;53.068;6.572;2023-08-21T14:06:53;27.10;80.80
54832;DHT22;40730;53.068;6.572;2023-08-21T14:09:59;27.00;81.50
54832;DHT22;40730;53.068;6.572;2023-08-21T14:12:29;27.10;79.70
54832;DHT22;40730;53.068;6.572;2023-08-21T14:14:59;27.00;80.90
54832;DHT22;40730;53.068;6.572;2023-08-21T14:17:25;27.20;79.60
54832;DHT22;40730;53.068;6.572;2023-08-21T14:20:34;27.00;81.80
54832;DHT22;40730;53.068;6.572;2023-08-21T14:24:23;27.10;79.80
54832;DHT22;40730;53.068;6.572;2023-08-21T14:32:45;27.00;83.40
54832;DHT22;40730;53.068;6.572;2023-08-21T14:36:49;26.70;86.50
54832;DHT22;40730;53.068;6.572;2023-08-21T14:39:43;26.50;83.30
54832;DHT22;40730;53.068;6.572;2023-08-21T14:46:49;26.20;84.00
54832;DHT22;40730;53.068;6.572;2023-08-21T15:00:18;26.00;88.40
54832;DHT22;40730;53.068;6.572;2023-08-21T15:10:04;25.80;86.60
54832;DHT22;40730;53.068;6.572;2023-08-21T15:13:28;25.80;89.50
54832;DHT22;40730;53.068;6.572;2023-08-21T15:16:30;25.50;90.40
54832;DHT22;40730;53.068;6.572;2023-08-21T15:23:38;25.60;90.20
54832;DHT22;40730;53.068;6.572;2023-08-21T15:39:35;26.60;89.50
54832;DHT22;40730;53.068;6.572;2023-08-21T15:42:04;26.60;89.80
54832;DHT22;40730;53.068;6.572;2023-08-21T15:44:41;26.30;88.00
54832;DHT22;40730;53.068;6.572;2023-08-21T15:47:07;26.30;87.40
54832;DHT22;40730;53.068;6.572;2023-08-21T15:49:35;26.20;89.30
54832;DHT22;40730;53.068;6.572;2023-08-21T15:52:24;26.20;90.60
54832;DHT22;40730;53.068;6.572;2023-08-21T15:55:28;26.10;90.70
54832;DHT22;40730;53.068;6.572;2023-08-21T15:57:55;25.80;90.70
54832;DHT22;40730;53.068;6.572;2023-08-21T16:04:30;25.70;91.10
54832;DHT22;40730;53.068;6.572;2023-08-21T16:11:27;25.40;92.10
54832;DHT22;40730;53.068;6.572;2023-08-21T16:14:02;25.30;92.00
54832;DHT22;40730;53.068;6.572;2023-08-21T16:17:04;25.30;92.20
54832;DHT22;40730;53.068;6.572;2023-08-21T16:27:05;24.90;93.90
54832;DHT22;40730;53.068;6.572;2023-08-21T16:45:58;24.50;99.10
54832;DHT22;40730;53.068;6.572;2023-08-21T16:48:24;24.30;99.90
54832;DHT22;40730;53.068;6.572;2023-08-21T16:50:50;24.20;99.90
54832;DHT22;40730;53.068;6.572;2023-08-21T16:53:16;24.10;99.90
54832;DHT22;40730;53.068;6.572;2023-08-21T16:55:42;23.90;99.90
54832;DHT22;40730;53.068;6.572;2023-08-21T16:58:09;23.90;99.90
54832;DHT22;40730;53.068;6.572;2023-08-21T17:00:35;23.80;99.90
54832;DHT22;40730;53.068;6.572;2023-08-21T17:03:01;23.70;99.90
54832;DHT22;40730;53.068;6.572;2023-08-21T17:05:27;23.60;99.90
54832;DHT22;40730;53.068;6.572;2023-08-21T17:07:53;23.50;99.90
54832;DHT22;40730;53.068;6.572;2023-08-21T17:10:18;23.20;99.90
54832;DHT22;40730;53.068;6.572;2023-08-21T17:12:44;23.20;99.90
54832;DHT22;40730;53.068;6.572;2023-08-21T17:15:11;23.10;99.90
54832;DHT22;40730;53.068;6.572;2023-08-21T17:17:37;23.00;99.90
54832;DHT22;40730;53.068;6.572;2023-08-21T17:20:03;22.90;99.90
54832;DHT22;40730;53.068;6.572;2023-08-21T17:22:29;22.90;99.90
54832;DHT22;40730;53.068;6.572;2023-08-21T17:24:55;22.90;99.90
54832;DHT22;40730;53.068;6.572;2023-08-21T17:27:21;22.80;99.90
54832;DHT22;40730;53.068;6.572;2023-08-21T17:29:47;22.70;99.90
54832;DHT22;40730;53.068;6.572;2023-08-21T17:32:13;22.70;99.90
54832;DHT22;40730;53.068;6.572;2023-08-21T17:34:40;22.60;99.90
54832;DHT22;40730;53.068;6.572;2023-08-21T17:37:06;22.50;99.90
54832;DHT22;40730;53.068;6.572;2023-08-21T17:39:35;22.50;99.90
54832;DHT22;40730;53.068;6.572;2023-08-21T17:42:01;22.40;99.90
54832;DHT22;40730;53.068;6.572;2023-08-21T17:44:28;22.30;99.90
54832;DHT22;40730;53.068;6.572;2023-08-21T17:46:54;22.30;99.90
54832;DHT22;40730;53.068;6.572;2023-08-21T17:49:20;22.20;99.90
54832;DHT22;40730;53.068;6.572;2023-08-21T17:51:46;22.20;99.90
54832;DHT22;40730;53.068;6.572;2023-08-21T17:54:11;22.10;99.90
54832;DHT22;40730;53.068;6.572;2023-08-21T17:56:37;22.10;99.90
54832;DHT22;40730;53.068;6.572;2023-08-21T17:59:03;22.00;99.90
54832;DHT22;40730;53.068;6.572;2023-08-21T18:01:29;21.90;99.90
54832;DHT22;40730;53.068;6.572;2023-08-21T18:03:55;21.90;99.90
54832;DHT22;40730;53.068;6.572;2023-08-21T18:06:20;21.80;99.90
54832;DHT22;40730;53.068;6.572;2023-08-21T18:08:48;21.80;99.90
54832;DHT22;40730;53.068;6.572;2023-08-21T18:11:14;21.70;99.90
54832;DHT22;40730;53.068;6.572;2023-08-21T18:13:39;21.50;99.90
54832;DHT22;40730;53.068;6.572;2023-08-21T18:16:05;21.50;99.90
54832;DHT22;40730;53.068;6.572;2023-08-21T18:18:30;21.40;99.90
54832;DHT22;40730;53.068;6.572;2023-08-21T18:20:56;21.30;99.90
54832;DHT22;40730;53.068;6.572;2023-08-21T18:23:24;21.20;99.90
54832;DHT22;40730;53.068;6.572;2023-08-21T18:25:50;21.10;99.90
54832;DHT22;40730;53.068;6.572;2023-08-21T18:28:17;21.20;99.90
54832;DHT22;40730;53.068;6.572;2023-08-21T18:30:48;21.00;99.90
54832;DHT22;40730;53.068;6.572;2023-08-21T18:33:15;20.90;99.90
54832;DHT22;40730;53.068;6.572;2023-08-21T18:35:41;20.80;99.90
54832;DHT22;40730;53.068;6.572;2023-08-21T18:38:07;20.70;99.90
54832;DHT22;40730;53.068;6.572;2023-08-21T18:40:33;20.70;99.90
54832;DHT22;40730;53.068;6.572;2023-08-21T18:42:59;20.60;99.90
54832;DHT22;40730;53.068;6.572;2023-08-21T18:45:25;20.40;99.90
54832;DHT22;40730;53.068;6.572;2023-08-21T18:47:51;20.10;99.90
54832;DHT22;40730;53.068;6.572;2023-08-21T18:50:18;20.00;99.90
54832;DHT22;40730;53.068;6.572;2023-08-21T18:52:46;19.80;99.90
54832;DHT22;40730;53.068;6.572;2023-08-21T18:55:11;19.70;99.90
54832;DHT22;40730;53.068;6.572;2023-08-21T18:57:37;19.60;99.90
54832;DHT22;40730;53.068;6.572;2023-08-21T19:00:04;19.50;99.90
54832;DHT22;40730;53.068;6.572;2023-08-21T19:02:35;19.50;99.90
54832;DHT22;40730;53.068;6.572;2023-08-21T19:05:00;19.40;99.90
54832;DHT22;40730;53.068;6.572;2023-08-21T19:07:26;19.40;99.90
54832;DHT22;40730;53.068;6.572;2023-08-21T19:09:52;19.40;99.90
54832;DHT22;40730;53.068;6.572;2023-08-21T19:12:17;19.30;99.90
54832;DHT22;40730;53.068;6.572;2023-08-21T19:14:43;19.30;99.90
54832;DHT22;40730;53.068;6.572;2023-08-21T19:17:08;19.20;99.90
54832;DHT22;40730;53.068;6.572;2023-08-21T19:19:34;19.10;99.90
54832;DHT22;40730;53.068;6.572;2023-08-21T19:22:00;18.90;99.90
54832;DHT22;40730;53.068;6.572;2023-08-21T19:24:25;18.80;99.90
54832;DHT22;40730;53.068;6.572;2023-08-21T19:26:51;18.70;99.90
54832;DHT22;40730;53.068;6.572;2023-08-21T19:29:16;18.60;99.90
54832;DHT22;40730;53.068;6.572;2023-08-21T19:31:42;18.50;99.90
54832;DHT22;40730;53.068;6.572;2023-08-21T19:34:08;18.40;99.90
54832;DHT22;40730;53.068;6.572;2023-08-21T19:36:34;18.40;99.90
54832;DHT22;40730;53.068;6.572;2023-08-21T19:38:59;18.40;99.90
54832;DHT22;40730;53.068;6.572;2023-08-21T19:41:25;18.40;99.90
54832;DHT22;40730;53.068;6.572;2023-08-21T19:43:51;18.40;99.90
54832;DHT22;40730;53.068;6.572;2023-08-21T19:46:16;18.50;99.90
54832;DHT22;40730;53.068;6.572;2023-08-21T19:48:42;18.40;99.90
54832;DHT22;40730;53.068;6.572;2023-08-21T19:51:08;18.50;99.90
54832;DHT22;40730;53.068;6.572;2023-08-21T19:53:33;18.50;99.90
54832;DHT22;40730;53.068;6.572;2023-08-21T19:55:59;18.30;99.90
54832;DHT22;40730;53.068;6.572;2023-08-21T19:58:25;18.10;99.90
54832;DHT22;40730;53.068;6.572;2023-08-21T20:00:50;18.00;99.90
54832;DHT22;40730;53.068;6.572;2023-08-21T20:03:16;18.00;99.90
54832;DHT22;40730;53.068;6.572;2023-08-21T20:05:41;17.90;99.90
54832;DHT22;40730;53.068;6.572;2023-08-21T20:08:07;17.90;99.90
54832;DHT22;40730;53.068;6.572;2023-08-21T20:10:33;17.90;99.90
54832;DHT22;40730;53.068;6.572;2023-08-21T20:12:58;17.90;99.90
54832;DHT22;40730;53.068;6.572;2023-08-21T20:15:24;17.80;99.90
54832;DHT22;40730;53.068;6.572;2023-08-21T20:17:49;17.70;99.90
54832;DHT22;40730;53.068;6.572;2023-08-21T20:20:15;17.60;99.90
54832;DHT22;40730;53.068;6.572;2023-08-21T20:22:41;17.60;99.90
54832;DHT22;40730;53.068;6.572;2023-08-21T20:25:07;17.50;99.90